sensor_id;sensor_type;location;lat;lon;timestamp;P1;durP1;ratioP1;P2;durP2;ratioP2
33495;SDS011;19836;55.812;37.560;2023-12-20T00:00:05;1.23;;;1.02;;
33495;SDS011;19836;55.812;37.560;2023-12-20T00:02:32;2.50;;;1.88;;
33495;SDS011;19836;55.812;37.560;2023-12-20T00:04:58;1.40;;;1.30;;
33495;SDS011;19836;55.812;37.560;2023-12-20T00:07:23;1.80;;;1.70;;
33495;SDS011;19836;55.812;37.560;2023-12-20T00:09:49;1.55;;;1.45;;
33495;SDS011;19836;55.812;37.560;2023-12-20T00:12:15;1.40;;;1.30;;
33495;SDS011;19836;55.812;37.560;2023-12-20T00:14:41;2.17;;;1.38;;
33495;SDS011;19836;55.812;37.560;2023-12-20T00:17:07;1.63;;;1.52;;
33495;SDS011;19836;55.812;37.560;2023-12-20T00:19:33;1.58;;;1.48;;
33495;SDS011;19836;55.812;37.560;2023-12-20T00:21:59;1.17;;;1.13;;
33495;SDS011;19836;55.812;37.560;2023-12-20T00:24:25;1.58;;;1.48;;
33495;SDS011;19836;55.812;37.560;2023-12-20T00:26:51;1.55;;;1.45;;
33495;SDS011;19836;55.812;37.560;2023-12-20T00:29:17;1.73;;;1.00;;
33495;SDS011;19836;55.812;37.560;2023-12-20T00:31:43;1.38;;;1.25;;
33495;SDS011;19836;55.812;37.560;2023-12-20T00:34:09;0.88;;;0.88;;
33495;SDS011;19836;55.812;37.560;2023-12-20T00:36:34;1.20;;;1.10;;
33495;SDS011;19836;55.812;37.560;2023-12-20T00:39:00;2.45;;;1.20;;
33495;SDS011;19836;55.812;37.560;2023-12-20T00:41:29;1.60;;;1.10;;
33495;SDS011;19836;55.812;37.560;2023-12-20T00:43:55;1.52;;;1.40;;
33495;SDS011;19836;55.812;37.560;2023-12-20T00:46:21;1.58;;;1.33;;
33495;SDS011;19836;55.812;37.560;2023-12-20T00:48:47;1.50;;;1.33;;
33495;SDS011;19836;55.812;37.560;2023-12-20T00:51:13;1.30;;;1.20;;
33495;SDS011;19836;55.812;37.560;2023-12-20T00:53:38;1.50;;;1.40;;
33495;SDS011;19836;55.812;37.560;2023-12-20T00:56:04;2.42;;;1.10;;
33495;SDS011;19836;55.812;37.560;2023-12-20T00:58:30;1.45;;;1.35;;
33495;SDS011;19836;55.812;37.560;2023-12-20T01:00:56;6.97;;;1.60;;
33495;SDS011;19836;55.812;37.560;2023-12-20T01:03:23;1.60;;;1.50;;
33495;SDS011;19836;55.812;37.560;2023-12-20T01:05:49;1.52;;;1.42;;
33495;SDS011;19836;55.812;37.560;2023-12-20T01:08:15;1.80;;;1.70;;
33495;SDS011;19836;55.812;37.560;2023-12-20T01:10:41;2.10;;;1.70;;
33495;SDS011;19836;55.812;37.560;2023-12-20T01:13:07;2.30;;;2.10;;
33495;SDS011;19836;55.812;37.560;2023-12-20T01:15:34;2.20;;;2.00;;
33495;SDS011;19836;55.812;37.560;2023-12-20T01:18:00;2.63;;;2.28;;
33495;SDS011;19836;55.812;37.560;2023-12-20T01:20:25;2.63;;;2.03;;
33495;SDS011;19836;55.812;37.560;2023-12-20T01:22:51;2.58;;;1.58;;
33495;SDS011;19836;55.812;37.560;2023-12-20T01:25:18;1.98;;;1.85;;
33495;SDS011;19836;55.812;37.560;2023-12-20T01:27:44;3.50;;;2.38;;
33495;SDS011;19836;55.812;37.560;2023-12-20T01:30:10;2.50;;;1.80;;
33495;SDS011;19836;55.812;37.560;2023-12-20T01:32:36;2.03;;;1.88;;
33495;SDS011;19836;55.812;37.560;2023-12-20T01:35:02;0.98;;;0.82;;
33495;SDS011;19836;55.812;37.560;2023-12-20T01:37:29;1.67;;;1.52;;
33495;SDS011;19836;55.812;37.560;2023-12-20T01:39:55;1.63;;;1.52;;
33495;SDS011;19836;55.812;37.560;2023-12-20T01:42:21;2.30;;;1.90;;
33495;SDS011;19836;55.812;37.560;2023-12-20T01:44:47;2.30;;;2.10;;
33495;SDS011;19836;55.812;37.560;2023-12-20T01:47:13;2.90;;;1.30;;
33495;SDS011;19836;55.812;37.560;2023-12-20T01:49:39;1.80;;;1.30;;
33495;SDS011;19836;55.812;37.560;2023-12-20T01:52:06;2.83;;;1.73;;
33495;SDS011;19836;55.812;37.560;2023-12-20T01:54:32;1.63;;;1.52;;
33495;SDS011;19836;55.812;37.560;2023-12-20T01:56:59;2.08;;;1.50;;
33495;SDS011;19836;55.812;37.560;2023-12-20T01:59:26;2.10;;;1.45;;
33495;SDS011;19836;55.812;37.560;2023-12-20T02:01:55;1.40;;;1.30;;
33495;SDS011;19836;55.812;37.560;2023-12-20T02:04:21;1.52;;;1.30;;
33495;SDS011;19836;55.812;37.560;2023-12-20T02:06:47;1.25;;;1.13;;
33495;SDS011;19836;55.812;37.560;2023-12-20T02:09:15;2.22;;;1.25;;
33495;SDS011;19836;55.812;37.560;2023-12-20T02:11:41;1.58;;;1.17;;
33495;SDS011;19836;55.812;37.560;2023-12-20T02:14:07;1.80;;;1.33;;
33495;SDS011;19836;55.812;37.560;2023-12-20T02:16:33;0.65;;;0.65;;
33495;SDS011;19836;55.812;37.560;2023-12-20T02:18:59;1.55;;;0.70;;
33495;SDS011;19836;55.812;37.560;2023-12-20T02:21:25;1.52;;;0.90;;
33495;SDS011;19836;55.812;37.560;2023-12-20T02:23:58;2.58;;;0.90;;
33495;SDS011;19836;55.812;37.560;2023-12-20T02:26:23;1.00;;;0.80;;
33495;SDS011;19836;55.812;37.560;2023-12-20T02:28:49;1.50;;;0.98;;
33495;SDS011;19836;55.812;37.560;2023-12-20T02:31:15;1.58;;;0.90;;
33495;SDS011;19836;55.812;37.560;2023-12-20T02:33:41;0.93;;;0.80;;
33495;SDS011;19836;55.812;37.560;2023-12-20T02:36:07;1.35;;;0.80;;
33495;SDS011;19836;55.812;37.560;2023-12-20T02:38:33;1.05;;;0.80;;
33495;SDS011;19836;55.812;37.560;2023-12-20T02:40:59;0.60;;;0.60;;
33495;SDS011;19836;55.812;37.560;2023-12-20T02:43:25;0.93;;;0.75;;
33495;SDS011;19836;55.812;37.560;2023-12-20T02:45:51;0.68;;;0.60;;
33495;SDS011;19836;55.812;37.560;2023-12-20T02:48:17;2.28;;;1.00;;
33495;SDS011;19836;55.812;37.560;2023-12-20T02:50:43;1.55;;;0.60;;
33495;SDS011;19836;55.812;37.560;2023-12-20T02:53:12;0.70;;;0.70;;
33495;SDS011;19836;55.812;37.560;2023-12-20T02:55:38;1.38;;;0.80;;
33495;SDS011;19836;55.812;37.560;2023-12-20T02:58:03;1.15;;;0.80;;
33495;SDS011;19836;55.812;37.560;2023-12-20T03:00:29;0.90;;;0.90;;
33495;SDS011;19836;55.812;37.560;2023-12-20T03:02:55;1.35;;;0.80;;
33495;SDS011;19836;55.812;37.560;2023-12-20T03:05:21;1.10;;;0.95;;
33495;SDS011;19836;55.812;37.560;2023-12-20T03:07:47;2.45;;;1.20;;
33495;SDS011;19836;55.812;37.560;2023-12-20T03:10:13;1.85;;;1.20;;
33495;SDS011;19836;55.812;37.560;2023-12-20T03:12:39;1.20;;;1.10;;
33495;SDS011;19836;55.812;37.560;2023-12-20T03:15:06;2.03;;;1.38;;
33495;SDS011;19836;55.812;37.560;2023-12-20T03:17:32;2.38;;;1.25;;
33495;SDS011;19836;55.812;37.560;2023-12-20T03:19:58;1.50;;;1.40;;
33495;SDS011;19836;55.812;37.560;2023-12-20T03:22:24;1.70;;;1.60;;
33495;SDS011;19836;55.812;37.560;2023-12-20T03:24:50;1.48;;;1.30;;
33495;SDS011;19836;55.812;37.560;2023-12-20T03:27:16;1.55;;;1.17;;
33495;SDS011;19836;55.812;37.560;2023-12-20T03:29:42;1.65;;;1.33;;
33495;SDS011;19836;55.812;37.560;2023-12-20T03:32:08;1.73;;;0.70;;
33495;SDS011;19836;55.812;37.560;2023-12-20T03:34:34;2.67;;;1.17;;
33495;SDS011;19836;55.812;37.560;2023-12-20T03:37:00;1.00;;;0.88;;
33495;SDS011;19836;55.812;37.560;2023-12-20T03:39:26;1.92;;;1.10;;
33495;SDS011;19836;55.812;37.560;2023-12-20T03:41:52;1.45;;;1.10;;
33495;SDS011;19836;55.812;37.560;2023-12-20T03:44:18;1.45;;;1.30;;
33495;SDS011;19836;55.812;37.560;2023-12-20T03:46:44;1.45;;;1.20;;
33495;SDS011;19836;55.812;37.560;2023-12-20T03:49:11;3.38;;;1.45;;
33495;SDS011;19836;55.812;37.560;2023-12-20T03:51:37;1.33;;;1.15;;
33495;SDS011;19836;55.812;37.560;2023-12-20T03:54:03;1.80;;;1.52;;
33495;SDS011;19836;55.812;37.560;2023-12-20T03:59:25;2.95;;;1.60;;
33495;SDS011;19836;55.812;37.560;2023-12-20T04:01:51;3.03;;;1.70;;
33495;SDS011;19836;55.812;37.560;2023-12-20T04:04:17;2.65;;;1.88;;
33495;SDS011;19836;55.812;37.560;2023-12-20T04:06:47;2.00;;;1.80;;
33495;SDS011;19836;55.812;37.560;2023-12-20T04:09:14;1.95;;;1.75;;
33495;SDS011;19836;55.812;37.560;2023-12-20T04:11:40;2.88;;;1.80;;
33495;SDS011;19836;55.812;37.560;2023-12-20T04:14:06;2.25;;;2.05;;
33495;SDS011;19836;55.812;37.560;2023-12-20T04:16:32;2.60;;;1.73;;
33495;SDS011;19836;55.812;37.560;2023-12-20T04:18:58;2.65;;;2.45;;
33495;SDS011;19836;55.812;37.560;2023-12-20T04:21:24;3.67;;;2.40;;
33495;SDS011;19836;55.812;37.560;2023-12-20T04:23:50;3.13;;;2.85;;
33495;SDS011;19836;55.812;37.560;2023-12-20T04:26:16;3.20;;;2.90;;
33495;SDS011;19836;55.812;37.560;2023-12-20T04:28:42;3.60;;;2.20;;
33495;SDS011;19836;55.812;37.560;2023-12-20T04:31:08;3.35;;;2.00;;
33495;SDS011;19836;55.812;37.560;2023-12-20T04:33:34;3.95;;;2.33;;
33495;SDS011;19836;55.812;37.560;2023-12-20T04:36:00;3.00;;;2.13;;
33495;SDS011;19836;55.812;37.560;2023-12-20T04:38:25;2.83;;;2.03;;
33495;SDS011;19836;55.812;37.560;2023-12-20T04:40:51;4.45;;;2.67;;
33495;SDS011;19836;55.812;37.560;2023-12-20T04:43:17;3.55;;;2.88;;
33495;SDS011;19836;55.812;37.560;2023-12-20T04:45:43;3.20;;;2.80;;
33495;SDS011;19836;55.812;37.560;2023-12-20T04:48:09;2.75;;;2.50;;
33495;SDS011;19836;55.812;37.560;2023-12-20T04:50:35;3.45;;;2.40;;
33495;SDS011;19836;55.812;37.560;2023-12-20T04:53:01;2.10;;;1.90;;
33495;SDS011;19836;55.812;37.560;2023-12-20T04:55:27;3.45;;;2.30;;
33495;SDS011;19836;55.812;37.560;2023-12-20T04:57:53;3.28;;;2.50;;
33495;SDS011;19836;55.812;37.560;2023-12-20T05:00:20;2.00;;;1.90;;
33495;SDS011;19836;55.812;37.560;2023-12-20T05:02:46;4.18;;;2.75;;
33495;SDS011;19836;55.812;37.560;2023-12-20T05:05:12;2.75;;;2.33;;
33495;SDS011;19836;55.812;37.560;2023-12-20T05:07:38;3.85;;;2.45;;
33495;SDS011;19836;55.812;37.560;2023-12-20T05:10:04;3.70;;;2.60;;
33495;SDS011;19836;55.812;37.560;2023-12-20T05:12:30;3.80;;;2.78;;
33495;SDS011;19836;55.812;37.560;2023-12-20T05:14:57;2.63;;;2.33;;
33495;SDS011;19836;55.812;37.560;2023-12-20T05:17:24;2.00;;;1.80;;
33495;SDS011;19836;55.812;37.560;2023-12-20T05:19:50;5.93;;;3.67;;
33495;SDS011;19836;55.812;37.560;2023-12-20T05:22:16;2.33;;;2.03;;
33495;SDS011;19836;55.812;37.560;2023-12-20T05:24:43;3.20;;;2.10;;
33495;SDS011;19836;55.812;37.560;2023-12-20T05:27:09;2.75;;;2.22;;
33495;SDS011;19836;55.812;37.560;2023-12-20T05:29:59;3.05;;;2.17;;
33495;SDS011;19836;55.812;37.560;2023-12-20T05:32:50;4.13;;;2.30;;
33495;SDS011;19836;55.812;37.560;2023-12-20T05:35:18;4.40;;;2.72;;
33495;SDS011;19836;55.812;37.560;2023-12-20T05:38:10;2.47;;;1.80;;
33495;SDS011;19836;55.812;37.560;2023-12-20T05:40:38;3.35;;;2.13;;
33495;SDS011;19836;55.812;37.560;2023-12-20T05:43:04;1.95;;;1.55;;
33495;SDS011;19836;55.812;37.560;2023-12-20T05:45:32;3.28;;;2.13;;
33495;SDS011;19836;55.812;37.560;2023-12-20T05:47:58;2.88;;;2.55;;
33495;SDS011;19836;55.812;37.560;2023-12-20T05:50:26;2.28;;;2.08;;
33495;SDS011;19836;55.812;37.560;2023-12-20T05:53:51;2.85;;;2.20;;
33495;SDS011;19836;55.812;37.560;2023-12-20T05:56:17;1.98;;;1.58;;
33495;SDS011;19836;55.812;37.560;2023-12-20T05:58:43;2.97;;;2.20;;
33495;SDS011;19836;55.812;37.560;2023-12-20T06:01:09;3.65;;;2.30;;
33495;SDS011;19836;55.812;37.560;2023-12-20T06:03:35;3.25;;;2.40;;
33495;SDS011;19836;55.812;37.560;2023-12-20T06:06:05;2.55;;;2.15;;
33495;SDS011;19836;55.812;37.560;2023-12-20T06:08:34;2.90;;;2.40;;
33495;SDS011;19836;55.812;37.560;2023-12-20T06:11:00;4.72;;;2.80;;
33495;SDS011;19836;55.812;37.560;2023-12-20T06:13:25;2.40;;;2.20;;
33495;SDS011;19836;55.812;37.560;2023-12-20T06:15:54;4.10;;;2.65;;
33495;SDS011;19836;55.812;37.560;2023-12-20T06:18:20;3.50;;;2.22;;
33495;SDS011;19836;55.812;37.560;2023-12-20T06:20:46;2.95;;;2.50;;
33495;SDS011;19836;55.812;37.560;2023-12-20T06:23:11;3.75;;;2.95;;
33495;SDS011;19836;55.812;37.560;2023-12-20T06:25:37;3.65;;;2.97;;
33495;SDS011;19836;55.812;37.560;2023-12-20T06:28:03;4.05;;;3.08;;
33495;SDS011;19836;55.812;37.560;2023-12-20T06:30:30;3.00;;;2.65;;
33495;SDS011;19836;55.812;37.560;2023-12-20T06:32:58;3.33;;;2.03;;
33495;SDS011;19836;55.812;37.560;2023-12-20T06:35:24;3.70;;;2.60;;
33495;SDS011;19836;55.812;37.560;2023-12-20T06:37:50;4.20;;;2.60;;
33495;SDS011;19836;55.812;37.560;2023-12-20T06:40:16;3.28;;;2.63;;
33495;SDS011;19836;55.812;37.560;2023-12-20T06:42:42;4.80;;;2.60;;
33495;SDS011;19836;55.812;37.560;2023-12-20T06:45:08;2.28;;;2.08;;
33495;SDS011;19836;55.812;37.560;2023-12-20T06:47:34;3.55;;;2.63;;
33495;SDS011;19836;55.812;37.560;2023-12-20T06:50:00;3.95;;;2.25;;
33495;SDS011;19836;55.812;37.560;2023-12-20T06:52:26;3.97;;;2.55;;
33495;SDS011;19836;55.812;37.560;2023-12-20T06:54:52;2.72;;;1.80;;
33495;SDS011;19836;55.812;37.560;2023-12-20T06:57:18;3.65;;;2.30;;
33495;SDS011;19836;55.812;37.560;2023-12-20T06:59:45;5.70;;;2.20;;
33495;SDS011;19836;55.812;37.560;2023-12-20T07:02:11;2.08;;;1.88;;
33495;SDS011;19836;55.812;37.560;2023-12-20T07:04:40;3.42;;;2.10;;
33495;SDS011;19836;55.812;37.560;2023-12-20T07:07:07;2.67;;;1.57;;
33495;SDS011;19836;55.812;37.560;2023-12-20T07:09:33;3.50;;;2.00;;
33495;SDS011;19836;55.812;37.560;2023-12-20T07:11:59;3.97;;;2.00;;
33495;SDS011;19836;55.812;37.560;2023-12-20T07:14:25;2.42;;;1.58;;
33495;SDS011;19836;55.812;37.560;2023-12-20T07:16:51;2.35;;;2.15;;
33495;SDS011;19836;55.812;37.560;2023-12-20T07:19:17;2.05;;;1.90;;
33495;SDS011;19836;55.812;37.560;2023-12-20T07:21:43;1.90;;;1.30;;
33495;SDS011;19836;55.812;37.560;2023-12-20T07:24:09;3.33;;;1.88;;
33495;SDS011;19836;55.812;37.560;2023-12-20T07:26:35;1.70;;;1.60;;
33495;SDS011;19836;55.812;37.560;2023-12-20T07:29:03;2.10;;;1.60;;
33495;SDS011;19836;55.812;37.560;2023-12-20T07:31:29;1.88;;;1.50;;
33495;SDS011;19836;55.812;37.560;2023-12-20T07:33:56;1.77;;;1.40;;
33495;SDS011;19836;55.812;37.560;2023-12-20T07:36:22;1.67;;;1.50;;
33495;SDS011;19836;55.812;37.560;2023-12-20T07:38:48;3.00;;;1.90;;
33495;SDS011;19836;55.812;37.560;2023-12-20T07:41:14;3.88;;;1.85;;
33495;SDS011;19836;55.812;37.560;2023-12-20T07:43:41;3.40;;;1.95;;
33495;SDS011;19836;55.812;37.560;2023-12-20T07:46:07;2.00;;;1.70;;
33495;SDS011;19836;55.812;37.560;2023-12-20T07:48:34;2.15;;;1.58;;
33495;SDS011;19836;55.812;37.560;2023-12-20T07:51:01;2.10;;;1.10;;
33495;SDS011;19836;55.812;37.560;2023-12-20T07:53:27;1.67;;;1.20;;
33495;SDS011;19836;55.812;37.560;2023-12-20T07:55:53;1.52;;;1.27;;
33495;SDS011;19836;55.812;37.560;2023-12-20T07:58:19;1.92;;;1.73;;
33495;SDS011;19836;55.812;37.560;2023-12-20T08:00:45;4.40;;;1.48;;
33495;SDS011;19836;55.812;37.560;2023-12-20T08:03:11;1.65;;;1.50;;
33495;SDS011;19836;55.812;37.560;2023-12-20T08:05:38;1.48;;;1.33;;
33495;SDS011;19836;55.812;37.560;2023-12-20T08:08:06;1.92;;;1.30;;
33495;SDS011;19836;55.812;37.560;2023-12-20T08:10:32;1.95;;;1.50;;
33495;SDS011;19836;55.812;37.560;2023-12-20T08:12:58;1.85;;;1.17;;
33495;SDS011;19836;55.812;37.560;2023-12-20T08:15:24;2.15;;;1.35;;
33495;SDS011;19836;55.812;37.560;2023-12-20T08:17:50;2.47;;;1.20;;
33495;SDS011;19836;55.812;37.560;2023-12-20T08:20:18;1.35;;;1.10;;
33495;SDS011;19836;55.812;37.560;2023-12-20T08:22:44;1.35;;;1.25;;
33495;SDS011;19836;55.812;37.560;2023-12-20T08:25:10;1.42;;;1.30;;
33495;SDS011;19836;55.812;37.560;2023-12-20T08:27:40;2.03;;;1.45;;
33495;SDS011;19836;55.812;37.560;2023-12-20T08:30:08;1.67;;;1.40;;
33495;SDS011;19836;55.812;37.560;2023-12-20T08:32:34;1.05;;;1.00;;
33495;SDS011;19836;55.812;37.560;2023-12-20T08:35:00;1.20;;;1.10;;
33495;SDS011;19836;55.812;37.560;2023-12-20T08:37:26;1.98;;;1.20;;
33495;SDS011;19836;55.812;37.560;2023-12-20T08:39:52;1.23;;;1.13;;
33495;SDS011;19836;55.812;37.560;2023-12-20T08:42:18;1.52;;;1.27;;
33495;SDS011;19836;55.812;37.560;2023-12-20T08:44:45;1.88;;;1.50;;
33495;SDS011;19836;55.812;37.560;2023-12-20T08:47:10;2.20;;;1.40;;
33495;SDS011;19836;55.812;37.560;2023-12-20T08:49:38;1.77;;;1.40;;
33495;SDS011;19836;55.812;37.560;2023-12-20T08:52:05;2.45;;;1.27;;
33495;SDS011;19836;55.812;37.560;2023-12-20T08:54:31;1.73;;;1.40;;
33495;SDS011;19836;55.812;37.560;2023-12-20T08:56:57;1.33;;;1.13;;
33495;SDS011;19836;55.812;37.560;2023-12-20T08:59:23;2.00;;;1.50;;
33495;SDS011;19836;55.812;37.560;2023-12-20T09:01:49;2.85;;;1.40;;
33495;SDS011;19836;55.812;37.560;2023-12-20T09:04:19;2.67;;;1.73;;
33495;SDS011;19836;55.812;37.560;2023-12-20T09:06:45;1.65;;;1.55;;
33495;SDS011;19836;55.812;37.560;2023-12-20T09:09:11;2.15;;;1.40;;
33495;SDS011;19836;55.812;37.560;2023-12-20T09:11:39;1.90;;;1.52;;
33495;SDS011;19836;55.812;37.560;2023-12-20T09:14:05;2.05;;;1.60;;
33495;SDS011;19836;55.812;37.560;2023-12-20T09:16:31;1.20;;;1.10;;
33495;SDS011;19836;55.812;37.560;2023-12-20T09:18:57;2.28;;;1.55;;
33495;SDS011;19836;55.812;37.560;2023-12-20T09:21:23;2.75;;;1.40;;
33495;SDS011;19836;55.812;37.560;2023-12-20T09:23:49;1.52;;;1.42;;
33495;SDS011;19836;55.812;37.560;2023-12-20T09:26:15;2.00;;;1.90;;
33495;SDS011;19836;55.812;37.560;2023-12-20T09:28:41;1.55;;;1.45;;
33495;SDS011;19836;55.812;37.560;2023-12-20T09:31:07;2.42;;;1.50;;
33495;SDS011;19836;55.812;37.560;2023-12-20T09:33:33;1.63;;;1.30;;
33495;SDS011;19836;55.812;37.560;2023-12-20T09:35:59;1.30;;;1.20;;
33495;SDS011;19836;55.812;37.560;2023-12-20T09:38:25;2.53;;;1.50;;
33495;SDS011;19836;55.812;37.560;2023-12-20T09:40:51;1.75;;;1.65;;
33495;SDS011;19836;55.812;37.560;2023-12-20T09:43:18;2.55;;;1.70;;
33495;SDS011;19836;55.812;37.560;2023-12-20T09:45:47;2.20;;;1.60;;
33495;SDS011;19836;55.812;37.560;2023-12-20T09:48:13;2.22;;;1.60;;
33495;SDS011;19836;55.812;37.560;2023-12-20T09:50:43;1.58;;;1.48;;
33495;SDS011;19836;55.812;37.560;2023-12-20T09:53:10;1.85;;;1.63;;
33495;SDS011;19836;55.812;37.560;2023-12-20T09:55:40;1.40;;;1.25;;
33495;SDS011;19836;55.812;37.560;2023-12-20T09:58:07;1.50;;;1.40;;
33495;SDS011;19836;55.812;37.560;2023-12-20T10:00:37;1.85;;;1.67;;
33495;SDS011;19836;55.812;37.560;2023-12-20T10:03:03;1.55;;;1.45;;
33495;SDS011;19836;55.812;37.560;2023-12-20T10:05:32;2.03;;;1.75;;
33495;SDS011;19836;55.812;37.560;2023-12-20T10:07:58;1.70;;;1.60;;
33495;SDS011;19836;55.812;37.560;2023-12-20T10:10:25;1.35;;;1.25;;
33495;SDS011;19836;55.812;37.560;2023-12-20T10:13:01;1.70;;;1.50;;
33495;SDS011;19836;55.812;37.560;2023-12-20T10:15:29;1.92;;;1.52;;
33495;SDS011;19836;55.812;37.560;2023-12-20T10:17:56;1.85;;;1.60;;
33495;SDS011;19836;55.812;37.560;2023-12-20T10:20:22;1.60;;;1.50;;
33495;SDS011;19836;55.812;37.560;2023-12-20T10:22:49;1.92;;;1.67;;
33495;SDS011;19836;55.812;37.560;2023-12-20T10:25:15;2.83;;;1.73;;
33495;SDS011;19836;55.812;37.560;2023-12-20T10:27:41;1.60;;;1.15;;
33495;SDS011;19836;55.812;37.560;2023-12-20T10:30:08;1.70;;;1.60;;
33495;SDS011;19836;55.812;37.560;2023-12-20T10:32:35;1.73;;;1.63;;
33495;SDS011;19836;55.812;37.560;2023-12-20T10:35:01;1.77;;;1.67;;
33495;SDS011;19836;55.812;37.560;2023-12-20T10:37:29;1.77;;;1.30;;
33495;SDS011;19836;55.812;37.560;2023-12-20T10:39:55;3.28;;;1.10;;
33495;SDS011;19836;55.812;37.560;2023-12-20T10:42:26;1.38;;;1.08;;
33495;SDS011;19836;55.812;37.560;2023-12-20T10:44:52;1.10;;;1.00;;
33495;SDS011;19836;55.812;37.560;2023-12-20T10:47:19;1.30;;;1.20;;
33495;SDS011;19836;55.812;37.560;2023-12-20T10:49:46;1.42;;;1.20;;
33495;SDS011;19836;55.812;37.560;2023-12-20T10:52:13;1.27;;;1.23;;
33495;SDS011;19836;55.812;37.560;2023-12-20T10:54:39;1.58;;;1.48;;
33495;SDS011;19836;55.812;37.560;2023-12-20T10:57:06;1.73;;;1.63;;
33495;SDS011;19836;55.812;37.560;2023-12-20T10:59:33;2.05;;;1.20;;
33495;SDS011;19836;55.812;37.560;2023-12-20T11:02:02;1.50;;;1.40;;
33495;SDS011;19836;55.812;37.560;2023-12-20T11:04:40;0.90;;;0.90;;
33495;SDS011;19836;55.812;37.560;2023-12-20T11:07:21;1.17;;;1.08;;
33495;SDS011;19836;55.812;37.560;2023-12-20T11:10:00;1.42;;;1.33;;
33495;SDS011;19836;55.812;37.560;2023-12-20T11:12:55;1.30;;;1.20;;
33495;SDS011;19836;55.812;37.560;2023-12-20T11:15:29;1.25;;;1.10;;
33495;SDS011;19836;55.812;37.560;2023-12-20T11:17:56;1.90;;;1.30;;
33495;SDS011;19836;55.812;37.560;2023-12-20T11:20:43;1.15;;;1.00;;
33495;SDS011;19836;55.812;37.560;2023-12-20T11:23:09;1.02;;;0.90;;
33495;SDS011;19836;55.812;37.560;2023-12-20T11:25:48;1.58;;;1.15;;
33495;SDS011;19836;55.812;37.560;2023-12-20T11:28:22;1.00;;;0.80;;
33495;SDS011;19836;55.812;37.560;2023-12-20T11:30:51;1.25;;;0.77;;
33495;SDS011;19836;55.812;37.560;2023-12-20T11:35:47;1.73;;;1.10;;
33495;SDS011;19836;55.812;37.560;2023-12-20T11:38:13;1.40;;;1.30;;
33495;SDS011;19836;55.812;37.560;2023-12-20T11:40:40;1.45;;;1.10;;
33495;SDS011;19836;55.812;37.560;2023-12-20T11:43:07;7.55;;;1.55;;
33495;SDS011;19836;55.812;37.560;2023-12-20T11:45:33;0.90;;;0.90;;
33495;SDS011;19836;55.812;37.560;2023-12-20T11:48:00;1.42;;;1.17;;
33495;SDS011;19836;55.812;37.560;2023-12-20T11:50:27;1.30;;;1.02;;
33495;SDS011;19836;55.812;37.560;2023-12-20T11:52:55;0.95;;;0.85;;
33495;SDS011;19836;55.812;37.560;2023-12-20T11:55:24;1.38;;;1.08;;
33495;SDS011;19836;55.812;37.560;2023-12-20T11:57:50;1.90;;;1.30;;
33495;SDS011;19836;55.812;37.560;2023-12-20T12:00:17;1.98;;;1.20;;
33495;SDS011;19836;55.812;37.560;2023-12-20T12:02:43;1.10;;;0.90;;
33495;SDS011;19836;55.812;37.560;2023-12-20T12:05:20;0.95;;;0.90;;
33495;SDS011;19836;55.812;37.560;2023-12-20T12:07:46;1.40;;;1.20;;
33495;SDS011;19836;55.812;37.560;2023-12-20T12:10:11;1.20;;;1.10;;
33495;SDS011;19836;55.812;37.560;2023-12-20T12:12:37;1.23;;;1.13;;
33495;SDS011;19836;55.812;37.560;2023-12-20T12:15:04;2.22;;;1.30;;
33495;SDS011;19836;55.812;37.560;2023-12-20T12:17:30;0.93;;;0.93;;
33495;SDS011;19836;55.812;37.560;2023-12-20T12:20:03;2.10;;;0.95;;
33495;SDS011;19836;55.812;37.560;2023-12-20T12:22:30;1.40;;;1.30;;
33495;SDS011;19836;55.812;37.560;2023-12-20T12:24:58;0.90;;;0.90;;
33495;SDS011;19836;55.812;37.560;2023-12-20T12:27:34;2.45;;;1.05;;
33495;SDS011;19836;55.812;37.560;2023-12-20T12:30:01;1.73;;;1.10;;
33495;SDS011;19836;55.812;37.560;2023-12-20T12:32:30;1.73;;;0.90;;
33495;SDS011;19836;55.812;37.560;2023-12-20T12:34:56;1.48;;;1.10;;
33495;SDS011;19836;55.812;37.560;2023-12-20T12:37:22;1.77;;;1.05;;
33495;SDS011;19836;55.812;37.560;2023-12-20T12:39:55;2.22;;;1.20;;
33495;SDS011;19836;55.812;37.560;2023-12-20T12:42:21;1.88;;;1.10;;
33495;SDS011;19836;55.812;37.560;2023-12-20T12:44:47;1.40;;;1.30;;
33495;SDS011;19836;55.812;37.560;2023-12-20T12:47:13;1.30;;;1.13;;
33495;SDS011;19836;55.812;37.560;2023-12-20T12:49:40;2.08;;;1.50;;
33495;SDS011;19836;55.812;37.560;2023-12-20T12:52:06;2.08;;;1.40;;
33495;SDS011;19836;55.812;37.560;2023-12-20T12:54:32;1.60;;;1.30;;
33495;SDS011;19836;55.812;37.560;2023-12-20T12:56:58;2.35;;;1.25;;
33495;SDS011;19836;55.812;37.560;2023-12-20T12:59:24;2.13;;;1.38;;
33495;SDS011;19836;55.812;37.560;2023-12-20T13:01:51;1.67;;;1.45;;
33495;SDS011;19836;55.812;37.560;2023-12-20T13:04:17;1.63;;;1.40;;
33495;SDS011;19836;55.812;37.560;2023-12-20T13:06:42;1.92;;;1.77;;
33495;SDS011;19836;55.812;37.560;2023-12-20T13:09:08;1.80;;;1.45;;
33495;SDS011;19836;55.812;37.560;2023-12-20T13:11:37;2.03;;;0.70;;
33495;SDS011;19836;55.812;37.560;2023-12-20T13:14:03;1.80;;;1.42;;
33495;SDS011;19836;55.812;37.560;2023-12-20T13:16:29;2.97;;;1.42;;
33495;SDS011;19836;55.812;37.560;2023-12-20T13:18:55;1.27;;;1.17;;
33495;SDS011;19836;55.812;37.560;2023-12-20T13:21:21;2.97;;;1.30;;
33495;SDS011;19836;55.812;37.560;2023-12-20T13:23:47;1.60;;;1.38;;
33495;SDS011;19836;55.812;37.560;2023-12-20T13:26:13;1.98;;;1.30;;
33495;SDS011;19836;55.812;37.560;2023-12-20T13:28:39;1.40;;;1.10;;
33495;SDS011;19836;55.812;37.560;2023-12-20T13:31:05;2.70;;;1.33;;
33495;SDS011;19836;55.812;37.560;2023-12-20T13:33:31;1.33;;;1.00;;
33495;SDS011;19836;55.812;37.560;2023-12-20T13:35:57;1.33;;;1.13;;
33495;SDS011;19836;55.812;37.560;2023-12-20T13:38:25;1.48;;;0.98;;
33495;SDS011;19836;55.812;37.560;2023-12-20T13:40:50;0.98;;;0.75;;
33495;SDS011;19836;55.812;37.560;2023-12-20T13:43:16;1.38;;;0.80;;
33495;SDS011;19836;55.812;37.560;2023-12-20T13:45:47;0.75;;;0.75;;
33495;SDS011;19836;55.812;37.560;2023-12-20T13:48:13;0.80;;;0.80;;
33495;SDS011;19836;55.812;37.560;2023-12-20T13:50:39;3.25;;;1.50;;
33495;SDS011;19836;55.812;37.560;2023-12-20T13:53:05;1.20;;;1.10;;
33495;SDS011;19836;55.812;37.560;2023-12-20T13:59:25;1.65;;;1.33;;
33495;SDS011;19836;55.812;37.560;2023-12-20T14:01:56;1.33;;;1.23;;
33495;SDS011;19836;55.812;37.560;2023-12-20T14:04:25;1.05;;;1.00;;
33495;SDS011;19836;55.812;37.560;2023-12-20T14:06:58;1.17;;;0.93;;
33495;SDS011;19836;55.812;37.560;2023-12-20T14:09:51;1.48;;;1.20;;
33495;SDS011;19836;55.812;37.560;2023-12-20T14:12:29;2.25;;;1.33;;
33495;SDS011;19836;55.812;37.560;2023-12-20T14:14:56;2.15;;;1.35;;
33495;SDS011;19836;55.812;37.560;2023-12-20T14:17:27;1.90;;;1.70;;
33495;SDS011;19836;55.812;37.560;2023-12-20T14:20:00;1.90;;;1.70;;
33495;SDS011;19836;55.812;37.560;2023-12-20T14:22:47;4.38;;;1.50;;
33495;SDS011;19836;55.812;37.560;2023-12-20T14:31:30;0.82;;;0.82;;
33495;SDS011;19836;55.812;37.560;2023-12-20T14:34:32;1.70;;;1.30;;
33495;SDS011;19836;55.812;37.560;2023-12-20T14:37:00;1.40;;;1.02;;
33495;SDS011;19836;55.812;37.560;2023-12-20T14:39:33;1.65;;;1.55;;
33495;SDS011;19836;55.812;37.560;2023-12-20T14:42:00;2.42;;;1.98;;
33495;SDS011;19836;55.812;37.560;2023-12-20T14:44:26;1.70;;;1.60;;
33495;SDS011;19836;55.812;37.560;2023-12-20T14:46:58;1.73;;;1.45;;
33495;SDS011;19836;55.812;37.560;2023-12-20T14:49:33;1.95;;;1.20;;